sensor_id;sensor_type;location;lat;lon;timestamp;P1;durP1;ratioP1;P2;durP2;ratioP2
58242;SDS011;50118;53.232;8.252;2022-08-07T00:01:18;13.63;;;9.02;;
58242;SDS011;50118;53.232;8.252;2022-08-07T00:03:44;14.35;;;9.05;;
58242;SDS011;50118;53.232;8.252;2022-08-07T00:06:09;13.30;;;8.68;;
58242;SDS011;50118;53.232;8.252;2022-08-07T00:08:35;14.38;;;9.02;;
58242;SDS011;50118;53.232;8.252;2022-08-07T00:11:01;13.65;;;9.23;;
58242;SDS011;50118;53.232;8.252;2022-08-07T00:13:28;13.52;;;8.82;;
58242;SDS011;50118;53.232;8.252;2022-08-07T00:15:54;13.23;;;8.43;;
58242;SDS011;50118;53.232;8.252;2022-08-07T00:18:20;13.00;;;8.48;;
58242;SDS011;50118;53.232;8.252;2022-08-07T00:20:48;12.55;;;8.85;;
58242;SDS011;50118;53.232;8.252;2022-08-07T00:23:13;14.95;;;9.35;;
58242;SDS011;50118;53.232;8.252;2022-08-07T00:25:39;13.40;;;8.88;;
58242;SDS011;50118;53.232;8.252;2022-08-07T00:28:04;13.88;;;9.15;;
58242;SDS011;50118;53.232;8.252;2022-08-07T00:30:30;11.77;;;8.48;;
58242;SDS011;50118;53.232;8.252;2022-08-07T00:32:56;14.43;;;9.43;;
58242;SDS011;50118;53.232;8.252;2022-08-07T00:35:22;14.00;;;9.40;;
58242;SDS011;50118;53.232;8.252;2022-08-07T00:37:48;13.75;;;9.00;;
58242;SDS011;50118;53.232;8.252;2022-08-07T00:40:14;13.80;;;8.95;;
58242;SDS011;50118;53.232;8.252;2022-08-07T00:42:39;15.20;;;9.52;;
58242;SDS011;50118;53.232;8.252;2022-08-07T00:45:05;14.05;;;9.48;;
58242;SDS011;50118;53.232;8.252;2022-08-07T00:47:32;12.13;;;8.50;;
58242;SDS011;50118;53.232;8.252;2022-08-07T00:49:58;12.95;;;8.60;;
58242;SDS011;50118;53.232;8.252;2022-08-07T00:52:24;14.20;;;9.30;;
58242;SDS011;50118;53.232;8.252;2022-08-07T00:54:49;12.38;;;8.68;;
58242;SDS011;50118;53.232;8.252;2022-08-07T00:57:16;13.75;;;9.32;;
58242;SDS011;50118;53.232;8.252;2022-08-07T00:59:42;13.73;;;8.98;;
58242;SDS011;50118;53.232;8.252;2022-08-07T01:02:08;12.40;;;8.77;;
58242;SDS011;50118;53.232;8.252;2022-08-07T01:04:35;13.23;;;9.07;;
58242;SDS011;50118;53.232;8.252;2022-08-07T01:07:02;13.23;;;8.57;;
58242;SDS011;50118;53.232;8.252;2022-08-07T01:09:27;14.18;;;9.20;;
58242;SDS011;50118;53.232;8.252;2022-08-07T01:11:53;13.85;;;9.15;;
58242;SDS011;50118;53.232;8.252;2022-08-07T01:14:19;12.55;;;8.70;;
58242;SDS011;50118;53.232;8.252;2022-08-07T01:16:45;13.88;;;9.25;;
58242;SDS011;50118;53.232;8.252;2022-08-07T01:19:12;15.55;;;9.95;;
58242;SDS011;50118;53.232;8.252;2022-08-07T01:21:38;12.90;;;8.93;;
58242;SDS011;50118;53.232;8.252;2022-08-07T01:24:05;14.55;;;9.35;;
58242;SDS011;50118;53.232;8.252;2022-08-07T01:26:32;13.73;;;9.13;;
58242;SDS011;50118;53.232;8.252;2022-08-07T01:28:58;14.32;;;9.40;;
58242;SDS011;50118;53.232;8.252;2022-08-07T01:31:25;13.85;;;9.85;;
58242;SDS011;50118;53.232;8.252;2022-08-07T01:33:59;14.98;;;9.50;;
58242;SDS011;50118;53.232;8.252;2022-08-07T01:36:25;14.93;;;9.57;;
58242;SDS011;50118;53.232;8.252;2022-08-07T01:38:52;13.35;;;9.43;;
58242;SDS011;50118;53.232;8.252;2022-08-07T01:41:18;14.15;;;9.30;;
58242;SDS011;50118;53.232;8.252;2022-08-07T01:43:45;14.05;;;9.55;;
58242;SDS011;50118;53.232;8.252;2022-08-07T01:46:11;13.63;;;9.13;;
58242;SDS011;50118;53.232;8.252;2022-08-07T01:48:39;14.05;;;10.00;;
58242;SDS011;50118;53.232;8.252;2022-08-07T01:51:07;16.45;;;9.90;;
58242;SDS011;50118;53.232;8.252;2022-08-07T01:53:35;14.05;;;9.57;;
58242;SDS011;50118;53.232;8.252;2022-08-07T01:56:08;17.05;;;9.88;;
58242;SDS011;50118;53.232;8.252;2022-08-07T01:58:37;15.80;;;9.98;;
58242;SDS011;50118;53.232;8.252;2022-08-07T02:01:08;16.23;;;10.05;;
58242;SDS011;50118;53.232;8.252;2022-08-07T02:03:38;17.23;;;10.40;;
58242;SDS011;50118;53.232;8.252;2022-08-07T02:06:07;16.30;;;10.25;;
58242;SDS011;50118;53.232;8.252;2022-08-07T02:08:38;17.67;;;10.55;;
58242;SDS011;50118;53.232;8.252;2022-08-07T02:11:06;15.65;;;10.38;;
58242;SDS011;50118;53.232;8.252;2022-08-07T02:13:33;14.85;;;9.80;;
58242;SDS011;50118;53.232;8.252;2022-08-07T02:16:01;14.77;;;9.57;;
58242;SDS011;50118;53.232;8.252;2022-08-07T02:18:28;14.65;;;9.50;;
58242;SDS011;50118;53.232;8.252;2022-08-07T02:20:58;16.20;;;10.43;;
58242;SDS011;50118;53.232;8.252;2022-08-07T02:23:25;14.27;;;9.35;;
58242;SDS011;50118;53.232;8.252;2022-08-07T02:25:52;17.10;;;10.88;;
58242;SDS011;50118;53.232;8.252;2022-08-07T02:28:21;15.32;;;10.13;;
58242;SDS011;50118;53.232;8.252;2022-08-07T02:30:49;15.35;;;10.05;;
58242;SDS011;50118;53.232;8.252;2022-08-07T02:33:16;15.35;;;9.48;;
58242;SDS011;50118;53.232;8.252;2022-08-07T02:35:42;15.38;;;10.20;;
58242;SDS011;50118;53.232;8.252;2022-08-07T02:38:10;14.88;;;9.85;;
58242;SDS011;50118;53.232;8.252;2022-08-07T02:40:38;13.48;;;9.20;;
58242;SDS011;50118;53.232;8.252;2022-08-07T02:43:03;15.45;;;9.95;;
58242;SDS011;50118;53.232;8.252;2022-08-07T02:45:30;14.00;;;9.43;;
58242;SDS011;50118;53.232;8.252;2022-08-07T02:47:57;13.95;;;9.63;;
58242;SDS011;50118;53.232;8.252;2022-08-07T02:50:23;15.02;;;9.80;;
58242;SDS011;50118;53.232;8.252;2022-08-07T02:52:53;14.93;;;9.23;;
58242;SDS011;50118;53.232;8.252;2022-08-07T02:55:27;16.30;;;10.25;;
58242;SDS011;50118;53.232;8.252;2022-08-07T02:57:55;15.35;;;10.00;;
58242;SDS011;50118;53.232;8.252;2022-08-07T03:00:27;14.50;;;9.75;;
58242;SDS011;50118;53.232;8.252;2022-08-07T03:02:54;16.33;;;10.43;;
58242;SDS011;50118;53.232;8.252;2022-08-07T03:05:21;14.23;;;9.32;;
58242;SDS011;50118;53.232;8.252;2022-08-07T03:07:48;14.55;;;9.52;;
58242;SDS011;50118;53.232;8.252;2022-08-07T03:10:14;15.02;;;9.88;;
58242;SDS011;50118;53.232;8.252;2022-08-07T03:12:41;14.43;;;8.82;;
58242;SDS011;50118;53.232;8.252;2022-08-07T03:15:10;15.38;;;9.65;;
58242;SDS011;50118;53.232;8.252;2022-08-07T03:17:36;15.23;;;10.05;;
58242;SDS011;50118;53.232;8.252;2022-08-07T03:20:03;15.93;;;10.05;;
58242;SDS011;50118;53.232;8.252;2022-08-07T03:22:29;15.57;;;10.52;;
58242;SDS011;50118;53.232;8.252;2022-08-07T03:24:56;14.93;;;10.07;;
58242;SDS011;50118;53.232;8.252;2022-08-07T03:27:23;13.82;;;9.73;;
58242;SDS011;50118;53.232;8.252;2022-08-07T03:29:50;14.50;;;9.60;;
58242;SDS011;50118;53.232;8.252;2022-08-07T03:32:18;16.23;;;10.10;;
58242;SDS011;50118;53.232;8.252;2022-08-07T03:34:47;14.15;;;9.43;;
58242;SDS011;50118;53.232;8.252;2022-08-07T03:37:14;16.08;;;10.07;;
58242;SDS011;50118;53.232;8.252;2022-08-07T03:39:42;15.70;;;10.00;;
58242;SDS011;50118;53.232;8.252;2022-08-07T03:42:08;15.85;;;10.48;;
58242;SDS011;50118;53.232;8.252;2022-08-07T03:44:35;17.98;;;9.88;;
58242;SDS011;50118;53.232;8.252;2022-08-07T03:47:02;16.20;;;10.35;;
58242;SDS011;50118;53.232;8.252;2022-08-07T03:49:29;15.88;;;10.50;;
58242;SDS011;50118;53.232;8.252;2022-08-07T03:51:56;16.58;;;9.48;;
58242;SDS011;50118;53.232;8.252;2022-08-07T03:54:23;14.52;;;9.65;;
58242;SDS011;50118;53.232;8.252;2022-08-07T03:56:48;15.43;;;10.07;;
58242;SDS011;50118;53.232;8.252;2022-08-07T03:59:16;17.98;;;10.75;;
58242;SDS011;50118;53.232;8.252;2022-08-07T04:01:43;16.13;;;9.88;;
58242;SDS011;50118;53.232;8.252;2022-08-07T04:04:10;15.68;;;10.05;;
58242;SDS011;50118;53.232;8.252;2022-08-07T04:06:36;16.52;;;10.48;;
58242;SDS011;50118;53.232;8.252;2022-08-07T04:09:05;16.20;;;11.15;;
58242;SDS011;50118;53.232;8.252;2022-08-07T04:11:31;14.50;;;9.75;;
58242;SDS011;50118;53.232;8.252;2022-08-07T04:13:58;17.35;;;10.98;;
58242;SDS011;50118;53.232;8.252;2022-08-07T04:16:26;18.02;;;11.27;;
58242;SDS011;50118;53.232;8.252;2022-08-07T04:18:52;17.52;;;10.10;;
58242;SDS011;50118;53.232;8.252;2022-08-07T04:21:17;17.00;;;11.25;;
58242;SDS011;50118;53.232;8.252;2022-08-07T04:23:43;17.38;;;11.02;;
58242;SDS011;50118;53.232;8.252;2022-08-07T04:26:10;16.05;;;10.38;;
58242;SDS011;50118;53.232;8.252;2022-08-07T04:28:36;18.33;;;10.70;;
58242;SDS011;50118;53.232;8.252;2022-08-07T04:31:01;17.25;;;11.32;;
58242;SDS011;50118;53.232;8.252;2022-08-07T04:33:27;16.40;;;10.38;;
58242;SDS011;50118;53.232;8.252;2022-08-07T04:35:53;17.17;;;11.38;;
58242;SDS011;50118;53.232;8.252;2022-08-07T04:38:19;18.25;;;11.45;;
58242;SDS011;50118;53.232;8.252;2022-08-07T04:40:46;15.98;;;10.23;;
58242;SDS011;50118;53.232;8.252;2022-08-07T04:43:13;16.42;;;10.02;;
58242;SDS011;50118;53.232;8.252;2022-08-07T04:45:50;16.95;;;10.60;;
58242;SDS011;50118;53.232;8.252;2022-08-07T04:51:18;13.68;;;9.20;;
58242;SDS011;50118;53.232;8.252;2022-08-07T04:53:53;12.80;;;8.43;;
58242;SDS011;50118;53.232;8.252;2022-08-07T05:07:59;12.00;;;8.05;;
58242;SDS011;50118;53.232;8.252;2022-08-07T05:10:39;12.40;;;8.90;;
58242;SDS011;50118;53.232;8.252;2022-08-07T05:16:13;13.90;;;8.88;;
58242;SDS011;50118;53.232;8.252;2022-08-07T05:18:46;12.82;;;8.68;;
58242;SDS011;50118;53.232;8.252;2022-08-07T05:21:16;10.65;;;7.55;;
58242;SDS011;50118;53.232;8.252;2022-08-07T05:23:54;10.35;;;7.20;;
58242;SDS011;50118;53.232;8.252;2022-08-07T05:26:34;9.20;;;6.97;;
58242;SDS011;50118;53.232;8.252;2022-08-07T05:29:02;8.45;;;5.95;;
58242;SDS011;50118;53.232;8.252;2022-08-07T05:31:48;8.73;;;6.45;;
58242;SDS011;50118;53.232;8.252;2022-08-07T05:34:16;8.30;;;6.25;;
58242;SDS011;50118;53.232;8.252;2022-08-07T05:36:47;8.85;;;7.05;;
58242;SDS011;50118;53.232;8.252;2022-08-07T05:39:16;7.97;;;6.53;;
58242;SDS011;50118;53.232;8.252;2022-08-07T05:41:43;9.25;;;6.72;;
58242;SDS011;50118;53.232;8.252;2022-08-07T05:44:11;8.32;;;6.80;;
58242;SDS011;50118;53.232;8.252;2022-08-07T05:46:37;8.95;;;6.93;;
58242;SDS011;50118;53.232;8.252;2022-08-07T05:49:05;8.25;;;6.80;;
58242;SDS011;50118;53.232;8.252;2022-08-07T05:51:32;8.43;;;6.38;;
58242;SDS011;50118;53.232;8.252;2022-08-07T05:53:57;11.00;;;7.68;;
58242;SDS011;50118;53.232;8.252;2022-08-07T05:56:23;10.32;;;7.68;;
58242;SDS011;50118;53.232;8.252;2022-08-07T05:58:50;9.85;;;7.88;;
58242;SDS011;50118;53.232;8.252;2022-08-07T06:01:16;11.07;;;8.35;;
58242;SDS011;50118;53.232;8.252;2022-08-07T06:03:46;12.40;;;8.60;;
58242;SDS011;50118;53.232;8.252;2022-08-07T06:06:14;10.43;;;7.68;;
58242;SDS011;50118;53.232;8.252;2022-08-07T06:08:41;10.30;;;7.53;;
58242;SDS011;50118;53.232;8.252;2022-08-07T06:11:07;13.05;;;9.23;;
58242;SDS011;50118;53.232;8.252;2022-08-07T06:13:34;11.82;;;7.97;;
58242;SDS011;50118;53.232;8.252;2022-08-07T06:16:02;10.05;;;7.70;;
58242;SDS011;50118;53.232;8.252;2022-08-07T06:18:34;10.20;;;7.70;;
58242;SDS011;50118;53.232;8.252;2022-08-07T06:21:00;12.88;;;8.95;;
58242;SDS011;50118;53.232;8.252;2022-08-07T06:23:27;12.20;;;8.48;;
58242;SDS011;50118;53.232;8.252;2022-08-07T06:25:54;14.45;;;9.27;;
58242;SDS011;50118;53.232;8.252;2022-08-07T06:28:20;11.50;;;8.25;;
58242;SDS011;50118;53.232;8.252;2022-08-07T06:30:45;10.80;;;8.52;;
58242;SDS011;50118;53.232;8.252;2022-08-07T06:33:11;13.18;;;8.32;;
58242;SDS011;50118;53.232;8.252;2022-08-07T06:35:48;11.43;;;8.57;;
58242;SDS011;50118;53.232;8.252;2022-08-07T06:38:14;12.60;;;8.57;;
58242;SDS011;50118;53.232;8.252;2022-08-07T06:40:42;10.60;;;7.78;;
58242;SDS011;50118;53.232;8.252;2022-08-07T06:43:14;11.18;;;7.80;;
58242;SDS011;50118;53.232;8.252;2022-08-07T06:45:43;12.48;;;8.88;;
58242;SDS011;50118;53.232;8.252;2022-08-07T06:48:21;12.75;;;8.88;;
58242;SDS011;50118;53.232;8.252;2022-08-07T06:50:47;12.27;;;8.10;;
58242;SDS011;50118;53.232;8.252;2022-08-07T06:53:15;11.18;;;7.72;;
58242;SDS011;50118;53.232;8.252;2022-08-07T06:55:46;11.45;;;8.05;;
58242;SDS011;50118;53.232;8.252;2022-08-07T06:58:13;10.32;;;7.65;;
58242;SDS011;50118;53.232;8.252;2022-08-07T07:04:14;10.50;;;7.50;;
58242;SDS011;50118;53.232;8.252;2022-08-07T07:06:47;10.05;;;7.30;;
58242;SDS011;50118;53.232;8.252;2022-08-07T07:16:04;9.38;;;6.78;;
58242;SDS011;50118;53.232;8.252;2022-08-07T07:21:31;11.80;;;6.85;;
58242;SDS011;50118;53.232;8.252;2022-08-07T07:24:01;9.15;;;6.60;;
58242;SDS011;50118;53.232;8.252;2022-08-07T07:26:27;11.50;;;6.40;;
58242;SDS011;50118;53.232;8.252;2022-08-07T07:28:59;9.68;;;6.45;;
58242;SDS011;50118;53.232;8.252;2022-08-07T07:31:36;9.25;;;6.20;;
58242;SDS011;50118;53.232;8.252;2022-08-07T07:34:06;7.70;;;6.05;;
58242;SDS011;50118;53.232;8.252;2022-08-07T07:36:35;9.43;;;6.15;;
58242;SDS011;50118;53.232;8.252;2022-08-07T07:39:31;8.57;;;6.13;;
58242;SDS011;50118;53.232;8.252;2022-08-07T07:42:01;10.57;;;6.35;;
58242;SDS011;50118;53.232;8.252;2022-08-07T07:51:29;8.57;;;5.80;;
58242;SDS011;50118;53.232;8.252;2022-08-07T07:57:14;7.85;;;5.78;;
58242;SDS011;50118;53.232;8.252;2022-08-07T07:59:44;7.25;;;5.28;;
58242;SDS011;50118;53.232;8.252;2022-08-07T08:02:15;9.32;;;5.90;;
58242;SDS011;50118;53.232;8.252;2022-08-07T08:04:44;8.00;;;5.65;;
58242;SDS011;50118;53.232;8.252;2022-08-07T08:07:11;7.10;;;5.45;;
58242;SDS011;50118;53.232;8.252;2022-08-07T08:09:37;8.10;;;5.40;;
58242;SDS011;50118;53.232;8.252;2022-08-07T08:12:04;6.20;;;4.60;;
58242;SDS011;50118;53.232;8.252;2022-08-07T08:14:31;8.98;;;5.20;;
58242;SDS011;50118;53.232;8.252;2022-08-07T08:16:59;7.68;;;5.45;;
58242;SDS011;50118;53.232;8.252;2022-08-07T08:19:27;6.40;;;5.07;;
58242;SDS011;50118;53.232;8.252;2022-08-07T08:21:54;7.35;;;4.90;;
58242;SDS011;50118;53.232;8.252;2022-08-07T08:24:42;6.78;;;4.88;;
58242;SDS011;50118;53.232;8.252;2022-08-07T08:27:28;8.05;;;6.57;;
58242;SDS011;50118;53.232;8.252;2022-08-07T08:30:05;7.53;;;5.00;;
58242;SDS011;50118;53.232;8.252;2022-08-07T08:32:33;7.63;;;5.10;;
58242;SDS011;50118;53.232;8.252;2022-08-07T08:35:03;7.72;;;5.13;;
58242;SDS011;50118;53.232;8.252;2022-08-07T08:37:30;8.20;;;4.75;;
58242;SDS011;50118;53.232;8.252;2022-08-07T08:40:00;7.25;;;4.68;;
58242;SDS011;50118;53.232;8.252;2022-08-07T08:42:35;5.72;;;4.57;;
58242;SDS011;50118;53.232;8.252;2022-08-07T08:50:48;6.70;;;5.15;;
58242;SDS011;50118;53.232;8.252;2022-08-07T09:03:53;6.45;;;4.85;;
58242;SDS011;50118;53.232;8.252;2022-08-07T09:06:38;6.00;;;4.80;;
58242;SDS011;50118;53.232;8.252;2022-08-07T09:09:23;7.18;;;5.00;;
58242;SDS011;50118;53.232;8.252;2022-08-07T09:22:53;7.25;;;5.07;;
58242;SDS011;50118;53.232;8.252;2022-08-07T09:28:38;6.38;;;4.20;;
58242;SDS011;50118;53.232;8.252;2022-08-07T09:31:07;8.00;;;4.05;;
58242;SDS011;50118;53.232;8.252;2022-08-07T09:37:03;5.80;;;4.53;;
58242;SDS011;50118;53.232;8.252;2022-08-07T09:39:48;6.40;;;4.72;;
58242;SDS011;50118;53.232;8.252;2022-08-07T09:53:54;8.23;;;4.15;;
58242;SDS011;50118;53.232;8.252;2022-08-07T10:01:45;6.03;;;4.10;;
58242;SDS011;50118;53.232;8.252;2022-08-07T10:07:17;6.18;;;3.70;;
58242;SDS011;50118;53.232;8.252;2022-08-07T10:43:34;6.70;;;3.78;;
58242;SDS011;50118;53.232;8.252;2022-08-07T10:46:29;5.32;;;3.75;;
58242;SDS011;50118;53.232;8.252;2022-08-07T10:54:28;6.50;;;3.92;;
58242;SDS011;50118;53.232;8.252;2022-08-07T11:00:11;6.68;;;4.35;;
58242;SDS011;50118;53.232;8.252;2022-08-07T11:02:57;6.07;;;3.90;;
58242;SDS011;50118;53.232;8.252;2022-08-07T11:08:39;5.45;;;3.90;;
58242;SDS011;50118;53.232;8.252;2022-08-07T11:11:14;5.90;;;3.70;;
58242;SDS011;50118;53.232;8.252;2022-08-07T11:13:50;5.78;;;3.50;;
58242;SDS011;50118;53.232;8.252;2022-08-07T11:16:27;5.72;;;3.80;;
58242;SDS011;50118;53.232;8.252;2022-08-07T11:21:41;5.78;;;3.70;;
58242;SDS011;50118;53.232;8.252;2022-08-07T11:24:11;4.95;;;3.80;;
58242;SDS011;50118;53.232;8.252;2022-08-07T11:26:41;5.80;;;3.80;;
58242;SDS011;50118;53.232;8.252;2022-08-07T11:29:37;6.90;;;3.63;;
58242;SDS011;50118;53.232;8.252;2022-08-07T11:32:20;4.72;;;3.38;;
58242;SDS011;50118;53.232;8.252;2022-08-07T11:34:58;6.25;;;3.70;;
58242;SDS011;50118;53.232;8.252;2022-08-07T12:08:36;4.93;;;3.38;;
58242;SDS011;50118;53.232;8.252;2022-08-07T12:11:10;5.75;;;3.60;;
58242;SDS011;50118;53.232;8.252;2022-08-07T12:13:50;4.10;;;3.00;;
58242;SDS011;50118;53.232;8.252;2022-08-07T12:16:26;3.80;;;3.00;;
58242;SDS011;50118;53.232;8.252;2022-08-07T12:19:00;5.18;;;3.00;;
58242;SDS011;50118;53.232;8.252;2022-08-07T12:24:13;5.38;;;3.70;;
58242;SDS011;50118;53.232;8.252;2022-08-07T12:29:48;5.47;;;3.17;;
58242;SDS011;50118;53.232;8.252;2022-08-07T12:35:06;4.35;;;3.20;;
58242;SDS011;50118;53.232;8.252;2022-08-07T12:37:35;3.90;;;3.00;;
58242;SDS011;50118;53.232;8.252;2022-08-07T12:40:02;5.50;;;3.20;;
58242;SDS011;50118;53.232;8.252;2022-08-07T12:42:29;5.40;;;3.20;;
58242;SDS011;50118;53.232;8.252;2022-08-07T12:44:57;4.45;;;2.80;;
58242;SDS011;50118;53.232;8.252;2022-08-07T12:52:49;5.70;;;3.50;;
58242;SDS011;50118;53.232;8.252;2022-08-07T12:57:56;3.70;;;2.88;;
58242;SDS011;50118;53.232;8.252;2022-08-07T13:01:07;3.70;;;2.83;;
58242;SDS011;50118;53.232;8.252;2022-08-07T13:06:19;4.43;;;2.97;;
58242;SDS011;50118;53.232;8.252;2022-08-07T13:11:50;3.88;;;3.00;;
58242;SDS011;50118;53.232;8.252;2022-08-07T13:17:18;4.28;;;2.85;;
58242;SDS011;50118;53.232;8.252;2022-08-07T13:19:52;3.85;;;2.75;;
58242;SDS011;50118;53.232;8.252;2022-08-07T13:22:25;4.68;;;2.83;;
58242;SDS011;50118;53.232;8.252;2022-08-07T13:28:03;4.60;;;3.10;;
58242;SDS011;50118;53.232;8.252;2022-08-07T13:30:31;4.30;;;3.00;;
58242;SDS011;50118;53.232;8.252;2022-08-07T13:35:41;4.82;;;3.10;;
58242;SDS011;50118;53.232;8.252;2022-08-07T13:38:15;4.43;;;2.97;;
58242;SDS011;50118;53.232;8.252;2022-08-07T13:43:41;5.18;;;3.05;;
58242;SDS011;50118;53.232;8.252;2022-08-07T13:46:09;5.07;;;3.00;;
58242;SDS011;50118;53.232;8.252;2022-08-07T13:48:37;3.95;;;3.08;;
58242;SDS011;50118;53.232;8.252;2022-08-07T13:51:05;6.68;;;3.38;;
58242;SDS011;50118;53.232;8.252;2022-08-07T13:53:37;4.30;;;3.33;;
58242;SDS011;50118;53.232;8.252;2022-08-07T13:56:04;3.78;;;2.90;;
58242;SDS011;50118;53.232;8.252;2022-08-07T13:58:35;3.95;;;2.60;;
58242;SDS011;50118;53.232;8.252;2022-08-07T14:01:21;5.88;;;3.00;;
58242;SDS011;50118;53.232;8.252;2022-08-07T14:03:50;5.18;;;2.80;;
58242;SDS011;50118;53.232;8.252;2022-08-07T14:06:17;4.32;;;3.30;;
58242;SDS011;50118;53.232;8.252;2022-08-07T14:08:49;4.60;;;3.08;;
58242;SDS011;50118;53.232;8.252;2022-08-07T14:11:17;4.85;;;3.15;;
58242;SDS011;50118;53.232;8.252;2022-08-07T14:13:50;4.20;;;2.80;;
58242;SDS011;50118;53.232;8.252;2022-08-07T14:16:20;4.10;;;2.83;;
58242;SDS011;50118;53.232;8.252;2022-08-07T14:18:51;5.72;;;3.35;;
58242;SDS011;50118;53.232;8.252;2022-08-07T14:21:19;4.75;;;2.97;;
58242;SDS011;50118;53.232;8.252;2022-08-07T14:24:03;5.30;;;3.15;;
58242;SDS011;50118;53.232;8.252;2022-08-07T14:26:36;4.75;;;3.13;;
58242;SDS011;50118;53.232;8.252;2022-08-07T14:29:07;4.28;;;3.20;;
58242;SDS011;50118;53.232;8.252;2022-08-07T14:31:35;5.00;;;3.13;;
58242;SDS011;50118;53.232;8.252;2022-08-07T14:34:02;6.15;;;2.97;;
58242;SDS011;50118;53.232;8.252;2022-08-07T14:36:30;4.95;;;2.55;;
58242;SDS011;50118;53.232;8.252;2022-08-07T14:38:59;4.47;;;2.90;;
58242;SDS011;50118;53.232;8.252;2022-08-07T14:41:28;4.65;;;2.80;;
58242;SDS011;50118;53.232;8.252;2022-08-07T14:43:56;6.32;;;3.75;;
58242;SDS011;50118;53.232;8.252;2022-08-07T14:46:23;3.85;;;2.88;;
58242;SDS011;50118;53.232;8.252;2022-08-07T14:48:49;4.65;;;3.65;;
58242;SDS011;50118;53.232;8.252;2022-08-07T14:51:21;4.97;;;2.70;;
58242;SDS011;50118;53.232;8.252;2022-08-07T14:53:52;4.65;;;3.22;;
58242;SDS011;50118;53.232;8.252;2022-08-07T14:56:21;3.05;;;2.40;;
58242;SDS011;50118;53.232;8.252;2022-08-07T14:58:50;6.20;;;3.17;;
58242;SDS011;50118;53.232;8.252;2022-08-07T15:01:19;8.55;;;4.28;;
58242;SDS011;50118;53.232;8.252;2022-08-07T15:03:49;3.40;;;2.40;;
58242;SDS011;50118;53.232;8.252;2022-08-07T15:06:20;4.55;;;2.50;;
58242;SDS011;50118;53.232;8.252;2022-08-07T15:11:18;3.53;;;2.38;;
58242;SDS011;50118;53.232;8.252;2022-08-07T15:13:50;3.47;;;2.35;;
58242;SDS011;50118;53.232;8.252;2022-08-07T15:16:23;3.70;;;2.58;;
58242;SDS011;50118;53.232;8.252;2022-08-07T15:19:01;4.10;;;2.40;;
58242;SDS011;50118;53.232;8.252;2022-08-07T15:21:32;3.92;;;2.50;;
58242;SDS011;50118;53.232;8.252;2022-08-07T15:24:01;4.72;;;2.40;;
58242;SDS011;50118;53.232;8.252;2022-08-07T15:26:37;5.05;;;2.20;;
58242;SDS011;50118;53.232;8.252;2022-08-07T15:29:07;2.97;;;2.20;;
58242;SDS011;50118;53.232;8.252;2022-08-07T15:31:34;3.75;;;2.60;;
58242;SDS011;50118;53.232;8.252;2022-08-07T15:34:00;3.40;;;2.25;;
58242;SDS011;50118;53.232;8.252;2022-08-07T15:36:28;3.30;;;2.28;;
58242;SDS011;50118;53.232;8.252;2022-08-07T15:38:55;4.00;;;2.20;;
58242;SDS011;50118;53.232;8.252;2022-08-07T15:41:28;2.92;;;2.10;;
58242;SDS011;50118;53.232;8.252;2022-08-07T15:43:58;3.80;;;2.50;;
58242;SDS011;50118;53.232;8.252;2022-08-07T15:46:27;4.15;;;2.50;;
58242;SDS011;50118;53.232;8.252;2022-08-07T15:48:55;4.25;;;2.67;;
58242;SDS011;50118;53.232;8.252;2022-08-07T15:51:24;4.53;;;2.60;;
58242;SDS011;50118;53.232;8.252;2022-08-07T15:53:52;5.00;;;2.30;;
58242;SDS011;50118;53.232;8.252;2022-08-07T15:56:42;3.13;;;2.08;;
58242;SDS011;50118;53.232;8.252;2022-08-07T15:59:12;4.03;;;2.30;;
58242;SDS011;50118;53.232;8.252;2022-08-07T16:01:48;3.47;;;2.17;;
58242;SDS011;50118;53.232;8.252;2022-08-07T16:06:50;5.32;;;2.30;;
58242;SDS011;50118;53.232;8.252;2022-08-07T16:28:57;4.85;;;3.00;;
58242;SDS011;50118;53.232;8.252;2022-08-07T17:05:26;4.38;;;2.58;;
58242;SDS011;50118;53.232;8.252;2022-08-07T17:08:02;3.97;;;2.83;;
58242;SDS011;50118;53.232;8.252;2022-08-07T17:10:30;4.43;;;2.60;;
58242;SDS011;50118;53.232;8.252;2022-08-07T17:15:46;5.28;;;2.78;;
58242;SDS011;50118;53.232;8.252;2022-08-07T17:21:32;4.65;;;2.72;;
58242;SDS011;50118;53.232;8.252;2022-08-07T17:27:53;4.80;;;3.17;;
58242;SDS011;50118;53.232;8.252;2022-08-07T17:30:06;4.40;;;2.90;;
58242;SDS011;50118;53.232;8.252;2022-08-07T17:42:01;6.43;;;3.40;;
58242;SDS011;50118;53.232;8.252;2022-08-07T17:49:49;4.95;;;3.20;;
58242;SDS011;50118;53.232;8.252;2022-08-07T17:52:23;7.13;;;3.50;;
58242;SDS011;50118;53.232;8.252;2022-08-07T17:55:29;5.75;;;3.92;;
58242;SDS011;50118;53.232;8.252;2022-08-07T17:58:44;6.32;;;3.60;;
58242;SDS011;50118;53.232;8.252;2022-08-07T18:01:02;7.00;;;3.80;;
58242;SDS011;50118;53.232;8.252;2022-08-07T18:03:55;7.03;;;3.90;;
58242;SDS011;50118;53.232;8.252;2022-08-07T18:06:45;7.43;;;3.75;;
58242;SDS011;50118;53.232;8.252;2022-08-07T18:09:20;7.05;;;3.85;;
58242;SDS011;50118;53.232;8.252;2022-08-07T18:17:31;6.55;;;4.20;;
58242;SDS011;50118;53.232;8.252;2022-08-07T18:22:49;8.52;;;4.60;;
58242;SDS011;50118;53.232;8.252;2022-08-07T18:25:41;9.40;;;4.00;;
58242;SDS011;50118;53.232;8.252;2022-08-07T18:28:22;7.03;;;4.18;;
58242;SDS011;50118;53.232;8.252;2022-08-07T18:31:04;7.43;;;3.83;;
58242;SDS011;50118;53.232;8.252;2022-08-07T18:36:49;5.55;;;3.95;;
58242;SDS011;50118;53.232;8.252;2022-08-07T18:46:04;9.75;;;4.28;;
58242;SDS011;50118;53.232;8.252;2022-08-07T18:54:02;8.15;;;3.88;;
58242;SDS011;50118;53.232;8.252;2022-08-07T18:56:47;6.30;;;4.00;;
58242;SDS011;50118;53.232;8.252;2022-08-07T18:59:32;7.65;;;3.83;;
58242;SDS011;50118;53.232;8.252;2022-08-07T19:08:25;5.72;;;3.72;;
58242;SDS011;50118;53.232;8.252;2022-08-07T19:11:40;6.30;;;3.65;;
58242;SDS011;50118;53.232;8.252;2022-08-07T19:14:23;6.68;;;3.60;;
58242;SDS011;50118;53.232;8.252;2022-08-07T19:20:46;6.88;;;3.65;;
58242;SDS011;50118;53.232;8.252;2022-08-07T19:23:41;5.78;;;3.45;;
58242;SDS011;50118;53.232;8.252;2022-08-07T19:26:13;5.43;;;3.10;;
58242;SDS011;50118;53.232;8.252;2022-08-07T19:31:39;4.70;;;3.53;;
58242;SDS011;50118;53.232;8.252;2022-08-07T19:34:21;7.72;;;3.53;;
58242;SDS011;50118;53.232;8.252;2022-08-07T19:36:53;5.18;;;3.50;;
58242;SDS011;50118;53.232;8.252;2022-08-07T19:39:23;6.07;;;3.90;;
58242;SDS011;50118;53.232;8.252;2022-08-07T19:41:59;6.72;;;3.75;;
58242;SDS011;50118;53.232;8.252;2022-08-07T19:44:32;7.85;;;3.90;;
58242;SDS011;50118;53.232;8.252;2022-08-07T19:47:05;5.63;;;4.18;;
58242;SDS011;50118;53.232;8.252;2022-08-07T19:49:43;4.53;;;3.67;;
58242;SDS011;50118;53.232;8.252;2022-08-07T19:52:12;6.15;;;3.67;;
58242;SDS011;50118;53.232;8.252;2022-08-07T19:54:49;5.95;;;3.72;;
58242;SDS011;50118;53.232;8.252;2022-08-07T19:57:17;6.25;;;3.72;;
58242;SDS011;50118;53.232;8.252;2022-08-07T19:59:48;5.57;;;3.83;;
58242;SDS011;50118;53.232;8.252;2022-08-07T20:02:24;6.32;;;3.75;;
58242;SDS011;50118;53.232;8.252;2022-08-07T20:04:53;5.68;;;3.80;;
58242;SDS011;50118;53.232;8.252;2022-08-07T20:07:24;6.60;;;3.50;;
58242;SDS011;50118;53.232;8.252;2022-08-07T20:10:24;5.70;;;3.50;;
58242;SDS011;50118;53.232;8.252;2022-08-07T20:12:51;4.80;;;3.67;;
58242;SDS011;50118;53.232;8.252;2022-08-07T20:15:31;5.07;;;3.53;;
58242;SDS011;50118;53.232;8.252;2022-08-07T20:17:59;5.75;;;3.78;;
58242;SDS011;50118;53.232;8.252;2022-08-07T20:20:27;5.35;;;3.60;;
58242;SDS011;50118;53.232;8.252;2022-08-07T20:22:55;5.45;;;3.75;;
58242;SDS011;50118;53.232;8.252;2022-08-07T20:25:25;7.43;;;3.72;;
58242;SDS011;50118;53.232;8.252;2022-08-07T20:27:53;6.40;;;3.60;;
58242;SDS011;50118;53.232;8.252;2022-08-07T20:30:30;5.25;;;3.53;;